createdAt,value
2019-04-29T00:00:43.691Z,99.90
2019-04-29T00:03:13.269Z,99.90
2019-04-29T00:05:45.333Z,99.90
2019-04-29T00:08:14.578Z,99.90
2019-04-29T00:10:49.900Z,99.90
2019-04-29T00:13:19.746Z,99.90
2019-04-29T00:16:26.340Z,99.90
2019-04-29T00:19:23.810Z,99.90
2019-04-29T00:21:53.458Z,99.90
2019-04-29T00:24:22.644Z,99.90
2019-04-29T00:26:51.946Z,99.90
2019-04-29T00:29:21.216Z,99.90
2019-04-29T00:31:50.511Z,99.90
2019-04-29T00:34:19.860Z,99.90
2019-04-29T00:36:59.765Z,99.90
2019-04-29T00:40:03.512Z,99.90
2019-04-29T00:42:46.521Z,99.90
2019-04-29T00:45:16.065Z,99.90
2019-04-29T00:47:45.375Z,99.90
2019-04-29T00:50:15.161Z,99.90
2019-04-29T00:52:44.467Z,99.90
2019-04-29T00:55:16.403Z,99.90
2019-04-29T00:57:45.761Z,99.90
2019-04-29T01:00:24.143Z,99.90
2019-04-29T01:02:53.435Z,99.90
2019-04-29T01:05:22.829Z,99.90
2019-04-29T01:07:52.444Z,99.90
2019-04-29T01:10:22.024Z,99.90
2019-04-29T01:12:51.308Z,99.90
2019-04-29T01:15:20.908Z,99.90
2019-04-29T01:17:50.262Z,99.90
2019-04-29T01:20:19.557Z,99.90
2019-04-29T01:22:48.782Z,99.90
2019-04-29T01:25:18.000Z,99.90
2019-04-29T01:27:53.606Z,99.90
2019-04-29T01:31:03.856Z,99.90
2019-04-29T01:33:33.229Z,99.90
2019-04-29T01:36:20.083Z,99.90
2019-04-29T01:38:50.768Z,99.90
2019-04-29T01:41:22.436Z,99.90
2019-04-29T01:44:11.110Z,99.90
2019-04-29T01:46:49.218Z,99.90
2019-04-29T01:49:18.428Z,99.90
2019-04-29T01:51:56.638Z,99.90
2019-04-29T01:54:26.036Z,99.90
2019-04-29T01:56:55.230Z,99.90
2019-04-29T01:59:24.514Z,99.90
2019-04-29T02:01:53.840Z,99.90
2019-04-29T02:04:23.071Z,99.90
2019-04-29T02:06:52.774Z,99.90
2019-04-29T02:09:49.591Z,99.90
2019-04-29T02:12:18.767Z,99.90
2019-04-29T02:14:47.969Z,99.90
2019-04-29T02:17:17.211Z,99.90
2019-04-29T02:19:46.553Z,99.90
2019-04-29T02:22:39.535Z,99.90
2019-04-29T02:25:16.711Z,99.90
2019-04-29T02:27:47.897Z,99.90
2019-04-29T02:30:42.815Z,99.90
2019-04-29T02:33:12.093Z,99.90
2019-04-29T02:35:41.617Z,99.90
2019-04-29T02:38:16.427Z,99.90
2019-04-29T02:40:56.874Z,99.90
2019-04-29T02:43:29.237Z,99.90
2019-04-29T02:45:58.567Z,99.90
2019-04-29T02:48:31.635Z,99.90
2019-04-29T02:50:58.909Z,99.90
2019-04-29T02:53:28.242Z,99.90
2019-04-29T02:55:59.216Z,99.90
2019-04-29T02:58:46.696Z,99.90
2019-04-29T03:01:35.026Z,99.90
2019-04-29T03:04:13.130Z,99.90
2019-04-29T03:06:42.679Z,99.90
2019-04-29T03:09:11.857Z,99.90
2019-04-29T03:11:41.154Z,99.90
2019-04-29T03:14:10.397Z,99.90
2019-04-29T03:16:40.170Z,99.90
2019-04-29T03:19:15.670Z,99.90
2019-04-29T03:21:51.429Z,99.90
2019-04-29T03:24:39.711Z,99.90
2019-04-29T03:27:09.063Z,99.90
2019-04-29T03:29:38.262Z,99.90
2019-04-29T03:32:07.588Z,99.90
2019-04-29T03:34:36.948Z,99.90
2019-04-29T03:37:06.216Z,99.90
2019-04-29T03:39:35.734Z,99.90
2019-04-29T03:42:07.440Z,99.90
2019-04-29T03:44:36.137Z,99.90
2019-04-29T03:47:05.454Z,99.90
2019-04-29T03:49:34.646Z,99.90
2019-04-29T03:52:03.996Z,99.90
2019-04-29T03:54:33.396Z,99.90
2019-04-29T03:57:04.787Z,99.90
2019-04-29T03:59:34.009Z,99.90
2019-04-29T04:02:10.043Z,99.90
2019-04-29T04:05:04.622Z,99.90
2019-04-29T04:07:52.958Z,99.90
2019-04-29T04:10:22.441Z,99.90
2019-04-29T04:12:51.800Z,99.90
2019-04-29T04:15:21.194Z,99.90
2019-04-29T04:17:57.086Z,99.90
2019-04-29T04:20:26.774Z,99.90
2019-04-29T04:22:56.054Z,99.90
2019-04-29T04:25:25.279Z,99.90
2019-04-29T04:27:54.625Z,99.90
2019-04-29T04:30:23.915Z,99.90
2019-04-29T04:32:53.144Z,99.90
2019-04-29T04:35:22.370Z,99.90
2019-04-29T04:37:51.656Z,99.90
2019-04-29T04:40:43.589Z,99.90
2019-04-29T04:43:12.984Z,99.90
2019-04-29T04:45:42.340Z,99.90
2019-04-29T04:48:11.631Z,99.90
2019-04-29T04:50:40.972Z,99.90
2019-04-29T04:53:10.293Z,99.90
2019-04-29T04:55:41.322Z,99.90
2019-04-29T04:58:13.176Z,99.90
2019-04-29T05:00:42.710Z,99.90
2019-04-29T05:03:12.015Z,99.90
2019-04-29T05:05:42.838Z,99.90
2019-04-29T05:08:12.498Z,99.90
2019-04-29T05:10:41.693Z,99.90
2019-04-29T05:13:11.024Z,99.90
2019-04-29T05:15:42.390Z,99.90
2019-04-29T05:18:11.621Z,99.90
2019-04-29T05:20:41.006Z,99.90
2019-04-29T05:23:10.459Z,99.90
2019-04-29T05:25:39.816Z,99.90
2019-04-29T05:28:09.047Z,99.90
2019-04-29T05:30:38.388Z,99.90
2019-04-29T05:33:07.699Z,99.90
2019-04-29T05:35:56.604Z,99.90
2019-04-29T05:39:13.981Z,99.90
2019-04-29T05:41:43.309Z,99.90
2019-04-29T05:44:40.440Z,99.90
2019-04-29T05:47:18.144Z,99.90
2019-04-29T05:50:06.723Z,99.90
2019-04-29T05:52:55.234Z,99.90
2019-04-29T05:55:24.512Z,99.90
2019-04-29T05:58:02.895Z,99.90
2019-04-29T06:00:27.145Z,99.90
2019-04-29T06:02:56.352Z,99.90
2019-04-29T06:05:25.646Z,99.90
2019-04-29T06:07:56.098Z,99.90
2019-04-29T06:10:25.807Z,99.90
2019-04-29T06:12:55.048Z,99.90
2019-04-29T06:15:24.354Z,99.90
2019-04-29T06:17:53.638Z,99.90
2019-04-29T06:20:23.155Z,99.90
2019-04-29T06:22:52.376Z,99.90
2019-04-29T06:25:21.765Z,99.90
2019-04-29T06:27:51.076Z,99.90
2019-04-29T06:30:20.563Z,99.90
2019-04-29T06:32:49.930Z,99.90
2019-04-29T06:35:19.229Z,99.90
2019-04-29T06:37:48.449Z,99.90
2019-04-29T06:40:17.673Z,99.90
2019-04-29T06:42:49.419Z,99.90
2019-04-29T06:45:18.396Z,99.90
2019-04-29T06:47:47.645Z,99.90
2019-04-29T06:50:16.998Z,99.90
2019-04-29T06:52:46.575Z,99.90
2019-04-29T06:55:15.919Z,99.90
2019-04-29T06:57:45.183Z,99.90
2019-04-29T07:00:17.646Z,99.90
2019-04-29T07:02:49.866Z,99.90
2019-04-29T07:05:16.673Z,99.90
2019-04-29T07:07:45.926Z,99.90
2019-04-29T07:10:16.593Z,99.90
2019-04-29T07:12:47.459Z,99.90
2019-04-29T07:15:17.343Z,99.90
2019-04-29T07:17:46.664Z,99.90
2019-04-29T07:20:15.908Z,99.90
2019-04-29T07:22:45.221Z,99.90
2019-04-29T07:25:14.449Z,99.90
2019-04-29T07:27:44.589Z,99.90
2019-04-29T07:30:14.384Z,99.50
2019-04-29T07:32:47.227Z,99.50
2019-04-29T07:35:14.966Z,98.10
2019-04-29T07:37:44.282Z,97.50
2019-04-29T07:40:14.126Z,97.30
2019-04-29T07:42:43.450Z,97.00
2019-04-29T07:45:43.625Z,97.20
2019-04-29T07:48:06.468Z,97.50
2019-04-29T07:50:34.050Z,97.10
2019-04-29T07:53:03.624Z,94.90
2019-04-29T07:55:32.948Z,94.90
2019-04-29T07:58:02.205Z,94.20
2019-04-29T08:00:35.431Z,93.70
2019-04-29T08:03:07.464Z,96.20
2019-04-29T08:05:36.787Z,96.30
2019-04-29T08:08:06.177Z,97.00
2019-04-29T08:10:35.485Z,96.80
2019-04-29T08:13:04.925Z,96.90
2019-04-29T08:15:36.929Z,95.60
2019-04-29T08:18:06.718Z,96.00
2019-04-29T08:20:39.715Z,94.90
2019-04-29T08:23:07.349Z,94.00
2019-04-29T08:25:36.574Z,93.90
2019-04-29T08:28:05.774Z,93.80
2019-04-29T08:30:35.039Z,92.20
2019-04-29T08:33:07.514Z,91.40
2019-04-29T08:35:36.896Z,90.40
2019-04-29T08:38:06.541Z,89.70
2019-04-29T08:40:35.900Z,89.80
2019-04-29T08:43:27.059Z,86.20
2019-04-29T08:46:02.313Z,90.60
2019-04-29T08:48:31.711Z,90.70
2019-04-29T08:51:01.108Z,92.00
2019-04-29T08:53:30.398Z,92.90
2019-04-29T08:55:59.734Z,93.00
2019-04-29T08:58:29.134Z,93.50
2019-04-29T09:00:58.428Z,93.90
2019-04-29T09:03:39.689Z,94.00
2019-04-29T09:06:05.629Z,94.60
2019-04-29T09:08:32.812Z,94.30
2019-04-29T09:11:00.881Z,93.50
2019-04-29T09:13:30.204Z,93.30
2019-04-29T09:15:59.640Z,91.60
2019-04-29T09:18:29.010Z,91.30
2019-04-29T09:20:58.426Z,92.10
2019-04-29T09:23:30.259Z,92.00
2019-04-29T09:26:17.363Z,93.40
2019-04-29T09:28:49.607Z,93.00
2019-04-29T09:31:18.070Z,95.50
2019-04-29T09:34:07.089Z,97.00
2019-04-29T09:36:36.471Z,95.70
2019-04-29T09:39:06.395Z,96.20
2019-04-29T09:41:49.861Z,96.50
2019-04-29T09:44:40.240Z,97.80
2019-04-29T09:47:10.287Z,96.70
2019-04-29T09:49:39.659Z,94.60
2019-04-29T09:52:08.950Z,93.00
2019-04-29T09:54:39.277Z,91.40
2019-04-29T09:57:08.527Z,92.20
2019-04-29T09:59:42.917Z,90.40
2019-04-29T10:02:26.548Z,89.10
2019-04-29T10:05:18.154Z,90.50
2019-04-29T10:07:47.465Z,90.10
2019-04-29T10:10:17.042Z,89.70
2019-04-29T10:12:46.328Z,85.10
2019-04-29T10:15:17.462Z,84.00
2019-04-29T10:17:56.318Z,86.90
2019-04-29T10:20:39.303Z,86.00
2019-04-29T10:23:08.696Z,85.60
2019-04-29T10:25:37.948Z,80.40
2019-04-29T10:28:07.559Z,80.40
2019-04-29T10:30:36.982Z,83.20
2019-04-29T10:33:25.916Z,84.20
2019-04-29T10:35:55.176Z,84.50
2019-04-29T10:38:24.658Z,88.40
2019-04-29T10:41:04.574Z,90.80
2019-04-29T10:43:55.407Z,91.40
2019-04-29T10:46:43.417Z,92.60
2019-04-29T10:49:19.763Z,93.50
2019-04-29T10:51:49.178Z,92.20
2019-04-29T10:54:18.594Z,93.90
2019-04-29T10:56:48.427Z,93.70
2019-04-29T10:59:18.635Z,93.70
2019-04-29T11:02:33.917Z,93.30
2019-04-29T11:05:21.427Z,90.90
2019-04-29T11:07:52.380Z,91.10
2019-04-29T11:10:31.794Z,91.10
2019-04-29T11:13:01.065Z,90.70
2019-04-29T11:15:37.243Z,91.80
2019-04-29T11:18:07.192Z,93.40
2019-04-29T11:20:36.922Z,93.10
2019-04-29T11:23:31.751Z,92.80
2019-04-29T11:26:40.617Z,93.20
2019-04-29T11:29:09.956Z,93.50
2019-04-29T11:31:39.369Z,94.30
2019-04-29T11:34:19.273Z,94.40
2019-04-29T11:36:48.814Z,95.00
2019-04-29T11:39:18.407Z,95.80
2019-04-29T11:41:50.058Z,95.20
2019-04-29T11:44:21.969Z,95.70
2019-04-29T11:46:50.701Z,94.80
2019-04-29T11:49:23.820Z,94.60
2019-04-29T11:52:08.614Z,95.30
2019-04-29T11:54:24.282Z,94.30
2019-04-29T11:56:53.548Z,94.70
2019-04-29T11:59:45.307Z,94.80
2019-04-29T12:02:44.122Z,94.10
2019-04-29T12:05:04.157Z,95.30
2019-04-29T12:07:34.083Z,96.00
2019-04-29T12:10:06.489Z,96.00
2019-04-29T12:12:35.306Z,96.10
2019-04-29T12:15:24.136Z,96.80
2019-04-29T12:18:04.042Z,96.10
2019-04-29T12:20:41.723Z,95.30
2019-04-29T12:23:15.281Z,96.30
2019-04-29T12:25:49.537Z,95.90
2019-04-29T12:28:19.739Z,96.00
2019-04-29T12:30:50.795Z,96.20
2019-04-29T12:33:28.115Z,96.10
2019-04-29T12:36:05.125Z,96.50
2019-04-29T12:38:59.133Z,97.20
2019-04-29T12:41:49.016Z,97.60
2019-04-29T12:44:48.383Z,97.60
2019-04-29T12:47:26.632Z,97.90
2019-04-29T12:49:56.017Z,97.20
2019-04-29T12:52:26.012Z,96.80
2019-04-29T12:54:55.241Z,95.90
2019-04-29T12:57:24.817Z,95.70
2019-04-29T13:00:18.318Z,96.10
2019-04-29T13:03:09.469Z,95.60
2019-04-29T13:05:58.267Z,95.00
2019-04-29T13:08:46.185Z,94.90
2019-04-29T13:11:19.329Z,95.10
2019-04-29T13:13:46.727Z,94.90
2019-04-29T13:16:43.296Z,95.50
2019-04-29T13:19:29.708Z,95.10
2019-04-29T13:21:59.351Z,95.30
2019-04-29T13:24:28.733Z,95.40
2019-04-29T13:26:58.066Z,95.70
2019-04-29T13:29:27.939Z,96.10
2019-04-29T13:32:01.652Z,95.50
2019-04-29T13:34:34.139Z,96.40
2019-04-29T13:37:08.297Z,95.70
2019-04-29T13:39:39.593Z,97.00
2019-04-29T13:42:08.643Z,96.90
2019-04-29T13:44:42.038Z,97.10
2019-04-29T13:47:31.063Z,97.00
2019-04-29T13:50:18.500Z,97.80
2019-04-29T13:52:38.247Z,97.40
2019-04-29T13:55:17.079Z,97.30
2019-04-29T13:57:38.705Z,97.60
2019-04-29T14:00:30.421Z,97.40
2019-04-29T14:03:17.376Z,97.60
2019-04-29T14:05:46.747Z,98.20
2019-04-29T14:08:16.031Z,98.50
2019-04-29T14:10:46.759Z,98.00
2019-04-29T14:13:18.905Z,98.10
2019-04-29T14:15:47.277Z,98.70
2019-04-29T14:18:16.583Z,98.90
2019-04-29T14:20:47.295Z,99.10
2019-04-29T14:23:16.907Z,99.10
2019-04-29T14:25:46.154Z,98.40
2019-04-29T14:28:15.349Z,98.20
2019-04-29T14:30:47.601Z,98.10
2019-04-29T14:33:19.322Z,98.90
2019-04-29T14:36:02.384Z,98.60
2019-04-29T14:38:31.708Z,98.80
2019-04-29T14:41:00.920Z,98.60
2019-04-29T14:43:55.108Z,99.20
2019-04-29T14:46:37.418Z,99.40
2019-04-29T14:49:13.389Z,99.50
2019-04-29T14:51:42.585Z,99.60
2019-04-29T14:54:11.930Z,98.90
2019-04-29T14:56:41.382Z,99.50
2019-04-29T14:59:10.784Z,99.90
2019-04-29T15:01:49.100Z,99.90
2019-04-29T15:04:21.372Z,99.90
2019-04-29T15:06:50.650Z,99.90
2019-04-29T15:09:20.157Z,99.90
2019-04-29T15:12:03.706Z,99.90
2019-04-29T15:14:59.245Z,99.90
2019-04-29T15:17:48.524Z,99.90
2019-04-29T15:20:29.626Z,99.90
2019-04-29T15:22:55.743Z,99.90
2019-04-29T15:25:24.935Z,99.90
2019-04-29T15:27:54.243Z,99.90
2019-04-29T15:30:23.499Z,99.90
2019-04-29T15:32:53.181Z,99.90
2019-04-29T15:35:24.334Z,99.90
2019-04-29T15:37:54.657Z,99.80
2019-04-29T15:40:46.136Z,99.90
2019-04-29T15:43:17.940Z,99.80
2019-04-29T15:45:46.399Z,99.70
2019-04-29T15:48:15.675Z,99.60
2019-04-29T15:50:44.924Z,99.90
2019-04-29T15:53:23.471Z,99.90
2019-04-29T15:56:06.063Z,99.90
2019-04-29T15:58:27.555Z,99.90
2019-04-29T16:01:10.675Z,99.90
2019-04-29T16:03:25.780Z,99.90
2019-04-29T16:06:21.770Z,99.90
2019-04-29T16:08:59.069Z,99.90
2019-04-29T16:11:45.535Z,99.90
2019-04-29T16:14:20.688Z,99.90
2019-04-29T16:16:50.032Z,99.90
2019-04-29T16:19:19.332Z,99.90
2019-04-29T16:21:50.644Z,99.90
2019-04-29T16:24:26.498Z,99.90
2019-04-29T16:26:53.597Z,99.90
2019-04-29T16:29:21.886Z,99.90
2019-04-29T16:31:54.954Z,99.90
2019-04-29T16:34:22.237Z,99.90
2019-04-29T16:36:52.570Z,99.90
2019-04-29T16:39:22.055Z,99.90
2019-04-29T16:42:16.367Z,99.90
2019-04-29T16:44:46.513Z,99.90
2019-04-29T16:47:16.485Z,99.90
2019-04-29T16:49:45.760Z,99.90
2019-04-29T16:52:15.080Z,99.90
2019-04-29T16:54:44.272Z,99.90
2019-04-29T16:57:13.490Z,99.90
2019-04-29T16:59:42.797Z,99.90
2019-04-29T17:02:18.938Z,99.90
2019-04-29T17:04:43.667Z,99.90
2019-04-29T17:07:14.761Z,99.90
2019-04-29T17:10:12.581Z,99.90
2019-04-29T17:12:46.791Z,99.90
2019-04-29T17:15:24.612Z,99.90
2019-04-29T17:17:47.879Z,99.90
2019-04-29T17:20:17.691Z,99.90
2019-04-29T17:22:47.061Z,99.90
2019-04-29T17:25:16.764Z,99.90
2019-04-29T17:28:03.009Z,99.90
2019-04-29T17:30:50.593Z,99.90
2019-04-29T17:33:28.035Z,99.90
2019-04-29T17:35:56.950Z,99.90
2019-04-29T17:38:26.305Z,99.90
2019-04-29T17:40:55.856Z,99.90
2019-04-29T17:43:50.059Z,99.90
2019-04-29T17:46:53.660Z,99.90
2019-04-29T17:49:35.050Z,99.90
2019-04-29T17:52:06.851Z,99.90
2019-04-29T17:54:40.130Z,99.90
2019-04-29T17:57:30.750Z,99.90
2019-04-29T18:00:28.390Z,99.90
2019-04-29T18:03:34.772Z,99.90
2019-04-29T18:06:17.226Z,99.90
2019-04-29T18:08:58.698Z,99.90
2019-04-29T18:11:28.515Z,99.90
2019-04-29T18:13:58.138Z,99.90
2019-04-29T18:16:39.551Z,99.90
2019-04-29T18:19:17.346Z,99.90
2019-04-29T18:22:04.192Z,99.90
2019-04-29T18:24:44.973Z,99.90
2019-04-29T18:27:18.155Z,99.90
2019-04-29T18:29:47.643Z,99.90
2019-04-29T18:32:18.189Z,99.90
2019-04-29T18:34:47.753Z,99.90
2019-04-29T18:37:17.565Z,99.90
2019-04-29T18:39:46.865Z,99.90
2019-04-29T18:42:16.473Z,99.90
2019-04-29T18:44:55.176Z,99.90
2019-04-29T18:47:22.504Z,99.90
2019-04-29T18:49:48.107Z,99.90
2019-04-29T18:52:25.331Z,99.90
2019-04-29T18:54:48.575Z,99.90
2019-04-29T18:57:27.734Z,99.90
2019-04-29T18:59:49.048Z,99.90
2019-04-29T19:02:18.343Z,99.90
2019-04-29T19:05:02.706Z,99.90
2019-04-29T19:07:37.210Z,99.90
2019-04-29T19:10:07.670Z,99.90
2019-04-29T19:12:36.446Z,99.90
2019-04-29T19:15:11.446Z,99.90
2019-04-29T19:17:39.985Z,99.90
2019-04-29T19:20:12.943Z,99.90
2019-04-29T19:22:40.069Z,99.90
2019-04-29T19:25:12.097Z,99.90
2019-04-29T19:27:41.660Z,99.90
2019-04-29T19:30:16.240Z,99.90
2019-04-29T19:32:45.061Z,99.90
2019-04-29T19:35:16.989Z,99.90
2019-04-29T19:37:46.470Z,99.90
2019-04-29T19:40:15.883Z,99.90
2019-04-29T19:42:46.946Z,99.90
2019-04-29T19:45:17.449Z,99.90
2019-04-29T19:47:50.772Z,99.90
2019-04-29T19:50:19.653Z,99.90
2019-04-29T19:52:49.034Z,99.90
2019-04-29T19:55:18.487Z,99.90
2019-04-29T19:57:51.905Z,99.90
2019-04-29T20:00:19.650Z,99.90
2019-04-29T20:02:51.024Z,99.90
2019-04-29T20:05:31.632Z,99.90
2019-04-29T20:07:59.026Z,99.90
2019-04-29T20:10:30.146Z,99.90
2019-04-29T20:13:19.687Z,99.90
2019-04-29T20:16:10.993Z,99.90
2019-04-29T20:19:01.511Z,99.90
2019-04-29T20:21:32.574Z,99.90
2019-04-29T20:24:02.172Z,99.90
2019-04-29T20:26:31.862Z,99.90
2019-04-29T20:29:01.344Z,99.90
2019-04-29T20:31:31.035Z,99.90
2019-04-29T20:34:01.689Z,99.90
2019-04-29T20:36:40.953Z,99.90
2019-04-29T20:39:02.551Z,99.90
2019-04-29T20:41:41.197Z,99.90
2019-04-29T20:44:05.876Z,99.90
2019-04-29T20:46:45.056Z,99.90
2019-04-29T20:49:05.824Z,99.90
2019-04-29T20:51:48.657Z,99.90
2019-04-29T20:54:19.048Z,99.90
2019-04-29T20:56:47.009Z,99.90
2019-04-29T20:59:15.979Z,99.90
2019-04-29T21:01:49.246Z,99.90
2019-04-29T21:04:31.238Z,99.90
2019-04-29T21:06:59.715Z,99.90
2019-04-29T21:09:26.293Z,99.90
2019-04-29T21:12:10.478Z,99.90
2019-04-29T21:14:49.105Z,99.90
2019-04-29T21:17:28.725Z,99.90
2019-04-29T21:19:49.798Z,99.90
2019-04-29T21:22:23.471Z,99.90
2019-04-29T21:24:53.923Z,99.90
2019-04-29T21:27:22.535Z,99.90
2019-04-29T21:29:54.073Z,99.90
2019-04-29T21:32:25.628Z,99.90
2019-04-29T21:35:26.990Z,99.90
2019-04-29T21:38:21.859Z,99.90
2019-04-29T21:40:53.671Z,99.90
2019-04-29T21:43:26.089Z,99.90
2019-04-29T21:45:55.693Z,99.90
2019-04-29T21:48:33.070Z,99.90
2019-04-29T21:50:56.171Z,99.90
2019-04-29T21:53:25.665Z,99.90
2019-04-29T21:55:55.455Z,99.90
2019-04-29T21:58:28.642Z,99.90
2019-04-29T22:01:04.983Z,99.90
2019-04-29T22:03:34.322Z,99.90
2019-04-29T22:06:03.628Z,99.90
2019-04-29T22:08:32.969Z,99.90
2019-04-29T22:11:04.810Z,99.90
2019-04-29T22:13:35.583Z,99.90
2019-04-29T22:16:04.642Z,99.90
2019-04-29T22:18:35.478Z,99.90
2019-04-29T22:21:07.631Z,99.90
2019-04-29T22:23:35.962Z,99.90
2019-04-29T22:26:05.233Z,99.90
2019-04-29T22:28:35.140Z,99.90
2019-04-29T22:31:05.469Z,99.90
2019-04-29T22:33:38.521Z,99.90
2019-04-29T22:36:10.100Z,99.90
2019-04-29T22:38:37.747Z,99.90
2019-04-29T22:41:26.583Z,99.90
2019-04-29T22:44:00.066Z,99.90
2019-04-29T22:46:29.352Z,99.90
2019-04-29T22:48:58.622Z,99.90
2019-04-29T22:51:49.781Z,99.90
2019-04-29T22:54:22.001Z,99.90
2019-04-29T22:56:52.136Z,99.90
2019-04-29T22:59:20.250Z,99.90
2019-04-29T23:01:50.707Z,99.90
2019-04-29T23:04:20.007Z,99.90
2019-04-29T23:06:49.322Z,99.90
2019-04-29T23:09:18.562Z,99.90
2019-04-29T23:11:47.889Z,99.90
2019-04-29T23:14:17.255Z,99.90
2019-04-29T23:16:47.501Z,99.90
2019-04-29T23:19:18.445Z,99.90
2019-04-29T23:22:22.261Z,99.90
2019-04-29T23:24:55.771Z,99.90
2019-04-29T23:27:31.185Z,99.90
2019-04-29T23:30:00.755Z,99.90
2019-04-29T23:32:30.498Z,99.90
2019-04-29T23:35:08.310Z,99.90
2019-04-29T23:37:35.860Z,99.90
2019-04-29T23:40:06.686Z,99.90
2019-04-29T23:42:36.416Z,99.90
2019-04-29T23:45:06.868Z,99.90
2019-04-29T23:47:36.676Z,99.90
2019-04-29T23:50:07.607Z,99.90
2019-04-29T23:52:37.268Z,99.90
2019-04-29T23:55:08.156Z,99.90
2019-04-29T23:57:46.476Z,99.90
